Terminal Aerodrome Forecast
Issued by NWS

Home | Current Version | Previous Version | Text Only | Print | Product List | Glossary On
Versions: 1 2 3 4 5 6 7 8 9 10 11 12 13 14
000
FTUS44 KTSA 152300
TAFXNA
TAF
KXNA 152322Z 1600/1624 20010KT P6SM SCT120
     FM160300 23002KT P6SM VCTS SCT040CB OVC250
     FM160600 00000KT 4SM BR OVC050
     FM160900 29002KT 2SM BR OVC007
     FM161500 00000KT P6SM OVC015
     FM161800 35004KT P6SM OVC050=

USA.gov is the U.S. government's official web portal to all federal, state and local government web resources and services.